sensor_id;sensor_type;location;lat;lon;timestamp;temperature;humidity
6462;DHT22;3264;42.862;25.098;2023-05-07T00:00:20;10.00;99.90
6462;DHT22;3264;42.862;25.098;2023-05-07T00:02:51;10.00;99.90
6462;DHT22;3264;42.862;25.098;2023-05-07T00:05:19;10.10;99.90
6462;DHT22;3264;42.862;25.098;2023-05-07T00:07:47;10.10;99.90
6462;DHT22;3264;42.862;25.098;2023-05-07T00:10:15;10.10;99.90
6462;DHT22;3264;42.862;25.098;2023-05-07T00:12:42;10.20;99.90
6462;DHT22;3264;42.862;25.098;2023-05-07T00:15:10;10.20;99.90
6462;DHT22;3264;42.862;25.098;2023-05-07T00:17:38;10.10;99.90
6462;DHT22;3264;42.862;25.098;2023-05-07T00:20:10;10.20;99.90
6462;DHT22;3264;42.862;25.098;2023-05-07T00:22:44;10.20;99.90
6462;DHT22;3264;42.862;25.098;2023-05-07T00:25:16;10.30;99.90
6462;DHT22;3264;42.862;25.098;2023-05-07T00:27:45;10.30;99.90
6462;DHT22;3264;42.862;25.098;2023-05-07T00:30:17;10.40;99.90
6462;DHT22;3264;42.862;25.098;2023-05-07T00:32:54;10.40;99.90
6462;DHT22;3264;42.862;25.098;2023-05-07T00:35:25;10.50;99.90
6462;DHT22;3264;42.862;25.098;2023-05-07T00:37:58;10.50;99.90
6462;DHT22;3264;42.862;25.098;2023-05-07T00:40:35;10.50;99.90
6462;DHT22;3264;42.862;25.098;2023-05-07T00:43:08;10.50;99.90
6462;DHT22;3264;42.862;25.098;2023-05-07T00:45:37;10.50;99.90
6462;DHT22;3264;42.862;25.098;2023-05-07T00:48:15;10.50;99.90
6462;DHT22;3264;42.862;25.098;2023-05-07T00:50:46;10.50;99.90
6462;DHT22;3264;42.862;25.098;2023-05-07T00:53:34;10.40;99.90
6462;DHT22;3264;42.862;25.098;2023-05-07T00:56:07;10.40;99.90
6462;DHT22;3264;42.862;25.098;2023-05-07T00:58:38;10.40;99.90
6462;DHT22;3264;42.862;25.098;2023-05-07T01:01:07;10.40;99.90
6462;DHT22;3264;42.862;25.098;2023-05-07T01:03:36;10.20;99.90
6462;DHT22;3264;42.862;25.098;2023-05-07T01:06:12;10.10;99.90
6462;DHT22;3264;42.862;25.098;2023-05-07T01:08:43;10.10;99.90
6462;DHT22;3264;42.862;25.098;2023-05-07T01:11:11;10.00;99.90
6462;DHT22;3264;42.862;25.098;2023-05-07T01:13:40;10.00;99.90
6462;DHT22;3264;42.862;25.098;2023-05-07T01:16:09;9.90;99.90
6462;DHT22;3264;42.862;25.098;2023-05-07T01:18:41;9.90;99.90
6462;DHT22;3264;42.862;25.098;2023-05-07T01:21:11;9.80;99.90
6462;DHT22;3264;42.862;25.098;2023-05-07T01:23:46;9.80;99.90
6462;DHT22;3264;42.862;25.098;2023-05-07T01:26:17;9.70;99.90
6462;DHT22;3264;42.862;25.098;2023-05-07T01:28:45;9.70;99.90
6462;DHT22;3264;42.862;25.098;2023-05-07T01:31:14;9.70;99.90
6462;DHT22;3264;42.862;25.098;2023-05-07T01:33:44;9.70;99.90
6462;DHT22;3264;42.862;25.098;2023-05-07T01:36:20;9.60;99.90
6462;DHT22;3264;42.862;25.098;2023-05-07T01:38:59;9.70;99.90
6462;DHT22;3264;42.862;25.098;2023-05-07T01:41:28;9.70;99.90
6462;DHT22;3264;42.862;25.098;2023-05-07T01:43:58;9.70;99.90
6462;DHT22;3264;42.862;25.098;2023-05-07T01:46:27;9.70;99.90
6462;DHT22;3264;42.862;25.098;2023-05-07T01:48:55;9.70;99.90
6462;DHT22;3264;42.862;25.098;2023-05-07T01:51:26;9.70;99.90
6462;DHT22;3264;42.862;25.098;2023-05-07T01:53:55;9.70;99.90
6462;DHT22;3264;42.862;25.098;2023-05-07T01:56:30;9.60;99.90
6462;DHT22;3264;42.862;25.098;2023-05-07T01:59:01;9.60;99.90
6462;DHT22;3264;42.862;25.098;2023-05-07T02:01:30;9.50;99.90
6462;DHT22;3264;42.862;25.098;2023-05-07T02:03:57;9.40;99.90
6462;DHT22;3264;42.862;25.098;2023-05-07T02:06:35;9.40;99.90
6462;DHT22;3264;42.862;25.098;2023-05-07T02:09:19;9.30;99.90
6462;DHT22;3264;42.862;25.098;2023-05-07T02:11:48;9.30;99.90
6462;DHT22;3264;42.862;25.098;2023-05-07T02:14:21;9.30;99.90
6462;DHT22;3264;42.862;25.098;2023-05-07T02:16:48;9.20;99.90
6462;DHT22;3264;42.862;25.098;2023-05-07T02:19:16;9.20;99.90
6462;DHT22;3264;42.862;25.098;2023-05-07T02:21:44;9.10;99.90
6462;DHT22;3264;42.862;25.098;2023-05-07T02:24:11;9.00;99.90
6462;DHT22;3264;42.862;25.098;2023-05-07T02:26:41;9.00;99.90
6462;DHT22;3264;42.862;25.098;2023-05-07T02:29:22;9.00;99.90
6462;DHT22;3264;42.862;25.098;2023-05-07T02:31:51;9.00;99.90
6462;DHT22;3264;42.862;25.098;2023-05-07T02:34:20;9.00;99.90
6462;DHT22;3264;42.862;25.098;2023-05-07T02:36:50;9.00;99.90
6462;DHT22;3264;42.862;25.098;2023-05-07T02:39:20;9.00;99.90
6462;DHT22;3264;42.862;25.098;2023-05-07T02:41:51;8.90;99.90
6462;DHT22;3264;42.862;25.098;2023-05-07T02:44:18;8.90;99.90
6462;DHT22;3264;42.862;25.098;2023-05-07T02:46:46;8.70;99.90
6462;DHT22;3264;42.862;25.098;2023-05-07T02:49:16;8.60;99.90
6462;DHT22;3264;42.862;25.098;2023-05-07T02:51:43;8.50;99.90
6462;DHT22;3264;42.862;25.098;2023-05-07T02:54:13;8.60;99.90
6462;DHT22;3264;42.862;25.098;2023-05-07T02:56:43;8.60;99.90
6462;DHT22;3264;42.862;25.098;2023-05-07T02:59:15;8.70;99.90
6462;DHT22;3264;42.862;25.098;2023-05-07T03:01:43;8.60;99.90
6462;DHT22;3264;42.862;25.098;2023-05-07T03:04:11;8.50;99.90
6462;DHT22;3264;42.862;25.098;2023-05-07T03:06:38;8.60;99.90
6462;DHT22;3264;42.862;25.098;2023-05-07T03:09:09;8.50;99.90
6462;DHT22;3264;42.862;25.098;2023-05-07T03:11:41;8.60;99.90
6462;DHT22;3264;42.862;25.098;2023-05-07T03:14:19;8.70;99.90
6462;DHT22;3264;42.862;25.098;2023-05-07T03:16:49;8.80;99.90
6462;DHT22;3264;42.862;25.098;2023-05-07T03:19:17;8.90;99.90
6462;DHT22;3264;42.862;25.098;2023-05-07T03:21:44;9.00;99.90
6462;DHT22;3264;42.862;25.098;2023-05-07T03:24:12;9.00;99.90
6462;DHT22;3264;42.862;25.098;2023-05-07T03:26:40;9.10;99.90
6462;DHT22;3264;42.862;25.098;2023-05-07T03:29:08;9.10;99.90
6462;DHT22;3264;42.862;25.098;2023-05-07T03:31:37;9.10;99.90
6462;DHT22;3264;42.862;25.098;2023-05-07T03:34:07;9.20;99.90
6462;DHT22;3264;42.862;25.098;2023-05-07T03:36:35;9.20;99.90
6462;DHT22;3264;42.862;25.098;2023-05-07T03:39:06;9.10;99.90
6462;DHT22;3264;42.862;25.098;2023-05-07T03:41:34;9.20;99.90
6462;DHT22;3264;42.862;25.098;2023-05-07T03:44:05;9.10;99.90
6462;DHT22;3264;42.862;25.098;2023-05-07T03:46:34;9.20;99.90
6462;DHT22;3264;42.862;25.098;2023-05-07T03:49:03;9.10;99.90
6462;DHT22;3264;42.862;25.098;2023-05-07T03:51:31;9.00;99.90
6462;DHT22;3264;42.862;25.098;2023-05-07T03:53:59;9.10;99.90
6462;DHT22;3264;42.862;25.098;2023-05-07T03:56:27;9.10;99.90
6462;DHT22;3264;42.862;25.098;2023-05-07T03:58:55;9.10;99.90
6462;DHT22;3264;42.862;25.098;2023-05-07T04:01:23;9.10;99.90
6462;DHT22;3264;42.862;25.098;2023-05-07T04:03:51;9.10;99.90
6462;DHT22;3264;42.862;25.098;2023-05-07T04:06:21;9.10;99.90
6462;DHT22;3264;42.862;25.098;2023-05-07T04:08:50;9.10;99.90
6462;DHT22;3264;42.862;25.098;2023-05-07T04:11:17;9.10;99.90
6462;DHT22;3264;42.862;25.098;2023-05-07T04:13:47;9.30;99.90
6462;DHT22;3264;42.862;25.098;2023-05-07T04:16:14;9.30;99.90
6462;DHT22;3264;42.862;25.098;2023-05-07T04:18:42;9.20;99.90
6462;DHT22;3264;42.862;25.098;2023-05-07T04:21:14;9.20;99.90
6462;DHT22;3264;42.862;25.098;2023-05-07T04:23:45;9.30;99.90
6462;DHT22;3264;42.862;25.098;2023-05-07T04:26:13;9.40;99.90
6462;DHT22;3264;42.862;25.098;2023-05-07T04:28:42;9.40;99.90
6462;DHT22;3264;42.862;25.098;2023-05-07T04:31:10;9.50;99.90
6462;DHT22;3264;42.862;25.098;2023-05-07T04:33:39;9.50;99.90
6462;DHT22;3264;42.862;25.098;2023-05-07T04:36:07;9.50;99.90
6462;DHT22;3264;42.862;25.098;2023-05-07T04:38:35;9.50;99.90
6462;DHT22;3264;42.862;25.098;2023-05-07T04:41:09;9.50;99.90
6462;DHT22;3264;42.862;25.098;2023-05-07T04:43:38;9.60;99.90
6462;DHT22;3264;42.862;25.098;2023-05-07T04:46:06;9.60;99.90
6462;DHT22;3264;42.862;25.098;2023-05-07T04:48:34;9.70;99.90
6462;DHT22;3264;42.862;25.098;2023-05-07T04:51:03;9.80;99.90
6462;DHT22;3264;42.862;25.098;2023-05-07T04:53:31;9.90;99.90
6462;DHT22;3264;42.862;25.098;2023-05-07T04:55:59;9.90;99.90
6462;DHT22;3264;42.862;25.098;2023-05-07T04:58:29;10.10;99.90
6462;DHT22;3264;42.862;25.098;2023-05-07T05:00:58;9.90;99.90
6462;DHT22;3264;42.862;25.098;2023-05-07T05:03:26;10.10;99.90
6462;DHT22;3264;42.862;25.098;2023-05-07T05:05:54;10.30;99.90
6462;DHT22;3264;42.862;25.098;2023-05-07T05:08:23;10.50;99.90
6462;DHT22;3264;42.862;25.098;2023-05-07T05:10:51;10.80;99.90
6462;DHT22;3264;42.862;25.098;2023-05-07T05:13:20;10.90;99.90
6462;DHT22;3264;42.862;25.098;2023-05-07T05:15:50;11.10;99.90
6462;DHT22;3264;42.862;25.098;2023-05-07T05:18:18;11.30;99.90
6462;DHT22;3264;42.862;25.098;2023-05-07T05:20:46;11.50;99.90
6462;DHT22;3264;42.862;25.098;2023-05-07T05:23:14;11.60;99.90
6462;DHT22;3264;42.862;25.098;2023-05-07T05:25:42;11.30;99.90
6462;DHT22;3264;42.862;25.098;2023-05-07T05:28:10;11.70;99.90
6462;DHT22;3264;42.862;25.098;2023-05-07T05:30:38;11.80;99.90
6462;DHT22;3264;42.862;25.098;2023-05-07T05:33:08;12.10;99.90
6462;DHT22;3264;42.862;25.098;2023-05-07T05:35:36;12.30;99.90
6462;DHT22;3264;42.862;25.098;2023-05-07T05:38:03;12.60;99.90
6462;DHT22;3264;42.862;25.098;2023-05-07T05:40:31;12.50;99.90
6462;DHT22;3264;42.862;25.098;2023-05-07T05:43:00;13.00;99.90
6462;DHT22;3264;42.862;25.098;2023-05-07T05:45:28;13.20;99.90
6462;DHT22;3264;42.862;25.098;2023-05-07T05:47:56;13.30;99.90
6462;DHT22;3264;42.862;25.098;2023-05-07T05:50:26;13.50;99.90
6462;DHT22;3264;42.862;25.098;2023-05-07T05:52:54;13.60;99.90
6462;DHT22;3264;42.862;25.098;2023-05-07T05:55:22;13.90;99.90
6462;DHT22;3264;42.862;25.098;2023-05-07T05:57:51;14.20;99.90
6462;DHT22;3264;42.862;25.098;2023-05-07T06:00:20;14.60;99.90
6462;DHT22;3264;42.862;25.098;2023-05-07T06:02:49;14.60;99.90
6462;DHT22;3264;42.862;25.098;2023-05-07T06:05:18;14.70;99.90
6462;DHT22;3264;42.862;25.098;2023-05-07T06:07:48;14.50;99.90
6462;DHT22;3264;42.862;25.098;2023-05-07T06:10:18;15.10;99.90
6462;DHT22;3264;42.862;25.098;2023-05-07T06:12:46;15.00;99.90
6462;DHT22;3264;42.862;25.098;2023-05-07T06:15:15;15.20;99.90
6462;DHT22;3264;42.862;25.098;2023-05-07T06:17:44;15.50;99.90
6462;DHT22;3264;42.862;25.098;2023-05-07T06:20:13;16.10;99.90
6462;DHT22;3264;42.862;25.098;2023-05-07T06:22:40;16.40;99.90
6462;DHT22;3264;42.862;25.098;2023-05-07T06:25:17;16.80;99.90
6462;DHT22;3264;42.862;25.098;2023-05-07T06:27:47;16.40;99.90
6462;DHT22;3264;42.862;25.098;2023-05-07T06:30:15;16.40;99.90
6462;DHT22;3264;42.862;25.098;2023-05-07T06:32:43;16.70;99.90
6462;DHT22;3264;42.862;25.098;2023-05-07T06:35:11;17.10;99.90
6462;DHT22;3264;42.862;25.098;2023-05-07T06:37:40;17.50;99.90
6462;DHT22;3264;42.862;25.098;2023-05-07T06:40:09;16.90;99.90
6462;DHT22;3264;42.862;25.098;2023-05-07T06:42:40;17.00;99.90
6462;DHT22;3264;42.862;25.098;2023-05-07T06:45:10;17.10;99.90
6462;DHT22;3264;42.862;25.098;2023-05-07T06:47:39;17.60;99.90
6462;DHT22;3264;42.862;25.098;2023-05-07T06:50:08;18.70;99.90
6462;DHT22;3264;42.862;25.098;2023-05-07T06:52:37;18.30;99.90
6462;DHT22;3264;42.862;25.098;2023-05-07T06:55:06;17.60;99.90
6462;DHT22;3264;42.862;25.098;2023-05-07T06:57:35;17.50;99.90
6462;DHT22;3264;42.862;25.098;2023-05-07T07:00:05;17.10;99.90
6462;DHT22;3264;42.862;25.098;2023-05-07T07:02:36;17.40;99.90
6462;DHT22;3264;42.862;25.098;2023-05-07T07:05:05;17.10;99.90
6462;DHT22;3264;42.862;25.098;2023-05-07T07:07:34;17.00;99.90
6462;DHT22;3264;42.862;25.098;2023-05-07T07:10:04;17.50;99.90
6462;DHT22;3264;42.862;25.098;2023-05-07T07:12:32;18.00;98.90
6462;DHT22;3264;42.862;25.098;2023-05-07T07:15:04;18.80;97.70
6462;DHT22;3264;42.862;25.098;2023-05-07T07:17:33;18.90;96.30
6462;DHT22;3264;42.862;25.098;2023-05-07T07:20:03;18.80;97.10
6462;DHT22;3264;42.862;25.098;2023-05-07T07:22:32;18.60;96.00
6462;DHT22;3264;42.862;25.098;2023-05-07T07:25:00;19.80;97.40
6462;DHT22;3264;42.862;25.098;2023-05-07T07:27:28;20.30;91.20
6462;DHT22;3264;42.862;25.098;2023-05-07T07:29:56;20.30;88.00
6462;DHT22;3264;42.862;25.098;2023-05-07T07:32:26;19.90;81.10
6462;DHT22;3264;42.862;25.098;2023-05-07T07:34:55;20.20;85.50
6462;DHT22;3264;42.862;25.098;2023-05-07T07:37:25;19.90;80.20
6462;DHT22;3264;42.862;25.098;2023-05-07T07:39:55;20.00;84.10
6462;DHT22;3264;42.862;25.098;2023-05-07T07:42:24;20.60;89.20
6462;DHT22;3264;42.862;25.098;2023-05-07T07:44:52;20.70;71.80
6462;DHT22;3264;42.862;25.098;2023-05-07T07:47:20;21.20;72.90
6462;DHT22;3264;42.862;25.098;2023-05-07T07:49:51;20.70;71.70
6462;DHT22;3264;42.862;25.098;2023-05-07T07:52:20;21.40;81.80
6462;DHT22;3264;42.862;25.098;2023-05-07T07:54:49;20.50;74.40
6462;DHT22;3264;42.862;25.098;2023-05-07T07:57:17;21.10;70.90
6462;DHT22;3264;42.862;25.098;2023-05-07T07:59:45;20.50;70.20
6462;DHT22;3264;42.862;25.098;2023-05-07T08:02:13;20.60;76.00
6462;DHT22;3264;42.862;25.098;2023-05-07T08:04:42;20.60;70.80
6462;DHT22;3264;42.862;25.098;2023-05-07T08:07:12;20.10;71.70
6462;DHT22;3264;42.862;25.098;2023-05-07T08:09:41;20.50;73.30
6462;DHT22;3264;42.862;25.098;2023-05-07T08:12:10;20.60;77.10
6462;DHT22;3264;42.862;25.098;2023-05-07T08:14:38;20.20;70.70
6462;DHT22;3264;42.862;25.098;2023-05-07T08:17:12;20.50;70.70
6462;DHT22;3264;42.862;25.098;2023-05-07T08:19:42;21.10;72.40
6462;DHT22;3264;42.862;25.098;2023-05-07T08:22:14;21.40;68.40
6462;DHT22;3264;42.862;25.098;2023-05-07T08:24:43;20.90;64.60
6462;DHT22;3264;42.862;25.098;2023-05-07T08:27:12;21.30;67.80
6462;DHT22;3264;42.862;25.098;2023-05-07T08:29:39;21.90;69.00
6462;DHT22;3264;42.862;25.098;2023-05-07T08:32:08;21.90;64.30
6462;DHT22;3264;42.862;25.098;2023-05-07T08:34:37;21.80;64.60
6462;DHT22;3264;42.862;25.098;2023-05-07T08:37:06;22.00;68.70
6462;DHT22;3264;42.862;25.098;2023-05-07T08:39:36;21.80;62.00
6462;DHT22;3264;42.862;25.098;2023-05-07T08:42:04;22.50;65.90
6462;DHT22;3264;42.862;25.098;2023-05-07T08:44:35;23.00;62.90
6462;DHT22;3264;42.862;25.098;2023-05-07T08:47:07;23.20;60.90
6462;DHT22;3264;42.862;25.098;2023-05-07T08:49:37;22.40;60.00
6462;DHT22;3264;42.862;25.098;2023-05-07T08:52:06;22.20;56.50
6462;DHT22;3264;42.862;25.098;2023-05-07T08:54:37;22.60;63.40
6462;DHT22;3264;42.862;25.098;2023-05-07T08:57:05;22.90;58.70
6462;DHT22;3264;42.862;25.098;2023-05-07T08:59:35;22.80;55.30
6462;DHT22;3264;42.862;25.098;2023-05-07T09:02:21;23.30;59.70
6462;DHT22;3264;42.862;25.098;2023-05-07T09:04:49;22.00;54.70
6462;DHT22;3264;42.862;25.098;2023-05-07T09:07:18;22.10;56.20
6462;DHT22;3264;42.862;25.098;2023-05-07T09:09:48;22.60;64.70
6462;DHT22;3264;42.862;25.098;2023-05-07T09:12:17;23.30;60.40
6462;DHT22;3264;42.862;25.098;2023-05-07T09:14:45;23.20;56.70
6462;DHT22;3264;42.862;25.098;2023-05-07T09:17:15;23.30;60.60
6462;DHT22;3264;42.862;25.098;2023-05-07T09:19:44;22.90;57.90
6462;DHT22;3264;42.862;25.098;2023-05-07T09:22:14;21.80;55.60
6462;DHT22;3264;42.862;25.098;2023-05-07T09:24:49;22.90;61.40
6462;DHT22;3264;42.862;25.098;2023-05-07T09:27:19;23.10;57.70
6462;DHT22;3264;42.862;25.098;2023-05-07T09:29:48;23.30;55.90
6462;DHT22;3264;42.862;25.098;2023-05-07T09:32:15;23.40;57.70
6462;DHT22;3264;42.862;25.098;2023-05-07T09:34:44;23.90;61.80
6462;DHT22;3264;42.862;25.098;2023-05-07T09:37:14;23.90;57.40
6462;DHT22;3264;42.862;25.098;2023-05-07T09:39:44;23.60;55.80
6462;DHT22;3264;42.862;25.098;2023-05-07T09:42:14;24.40;64.30
6462;DHT22;3264;42.862;25.098;2023-05-07T09:44:44;24.10;63.60
6462;DHT22;3264;42.862;25.098;2023-05-07T09:47:18;23.90;55.60
6462;DHT22;3264;42.862;25.098;2023-05-07T09:49:47;23.90;58.80
6462;DHT22;3264;42.862;25.098;2023-05-07T09:52:19;23.40;52.70
6462;DHT22;3264;42.862;25.098;2023-05-07T09:54:48;23.90;55.20
6462;DHT22;3264;42.862;25.098;2023-05-07T09:57:22;24.50;60.70
6462;DHT22;3264;42.862;25.098;2023-05-07T09:59:51;23.70;52.00
6462;DHT22;3264;42.862;25.098;2023-05-07T10:02:21;24.10;56.60
6462;DHT22;3264;42.862;25.098;2023-05-07T10:04:49;23.20;53.60
6462;DHT22;3264;42.862;25.098;2023-05-07T10:07:19;23.30;52.60
6462;DHT22;3264;42.862;25.098;2023-05-07T10:09:49;22.50;52.70
6462;DHT22;3264;42.862;25.098;2023-05-07T10:12:20;23.00;55.00
6462;DHT22;3264;42.862;25.098;2023-05-07T10:14:50;23.20;54.70
6462;DHT22;3264;42.862;25.098;2023-05-07T10:17:20;23.30;56.40
6462;DHT22;3264;42.862;25.098;2023-05-07T10:19:50;24.10;56.60
6462;DHT22;3264;42.862;25.098;2023-05-07T10:22:20;24.20;57.10
6462;DHT22;3264;42.862;25.098;2023-05-07T10:24:52;24.10;53.00
6462;DHT22;3264;42.862;25.098;2023-05-07T10:27:24;24.20;54.30
6462;DHT22;3264;42.862;25.098;2023-05-07T10:30:02;24.60;57.00
6462;DHT22;3264;42.862;25.098;2023-05-07T10:33:06;24.60;56.10
6462;DHT22;3264;42.862;25.098;2023-05-07T10:35:38;23.80;52.50
6462;DHT22;3264;42.862;25.098;2023-05-07T10:38:09;23.90;53.30
6462;DHT22;3264;42.862;25.098;2023-05-07T10:40:38;23.70;56.20
6462;DHT22;3264;42.862;25.098;2023-05-07T10:43:09;24.00;58.00
6462;DHT22;3264;42.862;25.098;2023-05-07T10:45:38;23.60;52.50
6462;DHT22;3264;42.862;25.098;2023-05-07T10:48:09;23.90;52.00
6462;DHT22;3264;42.862;25.098;2023-05-07T10:50:37;24.80;56.20
6462;DHT22;3264;42.862;25.098;2023-05-07T10:53:25;23.70;53.70
6462;DHT22;3264;42.862;25.098;2023-05-07T10:56:26;24.80;55.30
6462;DHT22;3264;42.862;25.098;2023-05-07T10:59:32;25.50;56.20
6462;DHT22;3264;42.862;25.098;2023-05-07T11:02:07;25.20;55.40
6462;DHT22;3264;42.862;25.098;2023-05-07T11:04:38;24.60;51.30
6462;DHT22;3264;42.862;25.098;2023-05-07T11:07:25;24.30;52.50
6462;DHT22;3264;42.862;25.098;2023-05-07T11:10:02;24.40;56.30
6462;DHT22;3264;42.862;25.098;2023-05-07T11:12:54;25.50;58.10
6462;DHT22;3264;42.862;25.098;2023-05-07T11:15:39;25.00;52.50
6462;DHT22;3264;42.862;25.098;2023-05-07T11:18:08;24.50;52.90
6462;DHT22;3264;42.862;25.098;2023-05-07T11:20:55;24.20;51.50
6462;DHT22;3264;42.862;25.098;2023-05-07T11:26:46;25.20;50.10
6462;DHT22;3264;42.862;25.098;2023-05-07T11:29:15;25.60;54.10
6462;DHT22;3264;42.862;25.098;2023-05-07T11:31:49;25.60;51.10
6462;DHT22;3264;42.862;25.098;2023-05-07T11:34:21;25.30;53.70
6462;DHT22;3264;42.862;25.098;2023-05-07T11:36:50;25.40;52.60
6462;DHT22;3264;42.862;25.098;2023-05-07T11:39:27;25.40;48.40
6462;DHT22;3264;42.862;25.098;2023-05-07T11:41:57;25.60;50.10
6462;DHT22;3264;42.862;25.098;2023-05-07T11:44:39;26.10;52.60
6462;DHT22;3264;42.862;25.098;2023-05-07T11:47:11;25.60;51.20
6462;DHT22;3264;42.862;25.098;2023-05-07T11:49:41;25.50;53.70
6462;DHT22;3264;42.862;25.098;2023-05-07T11:52:13;24.70;48.70
6462;DHT22;3264;42.862;25.098;2023-05-07T11:54:49;25.20;56.20
6462;DHT22;3264;42.862;25.098;2023-05-07T11:57:17;25.50;53.00
6462;DHT22;3264;42.862;25.098;2023-05-07T11:59:46;25.50;51.20
6462;DHT22;3264;42.862;25.098;2023-05-07T12:02:17;25.40;50.30
6462;DHT22;3264;42.862;25.098;2023-05-07T12:04:46;25.40;49.10
6462;DHT22;3264;42.862;25.098;2023-05-07T12:07:16;25.00;50.30
6462;DHT22;3264;42.862;25.098;2023-05-07T12:09:46;25.50;53.60
6462;DHT22;3264;42.862;25.098;2023-05-07T12:12:15;25.20;50.50
6462;DHT22;3264;42.862;25.098;2023-05-07T12:14:45;24.00;49.60
6462;DHT22;3264;42.862;25.098;2023-05-07T12:17:17;24.80;51.10
6462;DHT22;3264;42.862;25.098;2023-05-07T12:19:48;24.30;53.00
6462;DHT22;3264;42.862;25.098;2023-05-07T12:22:18;25.00;52.70
6462;DHT22;3264;42.862;25.098;2023-05-07T12:24:56;24.70;49.00
6462;DHT22;3264;42.862;25.098;2023-05-07T12:27:28;25.00;50.40
6462;DHT22;3264;42.862;25.098;2023-05-07T12:29:57;25.30;52.30
6462;DHT22;3264;42.862;25.098;2023-05-07T12:32:28;25.40;51.00
6462;DHT22;3264;42.862;25.098;2023-05-07T12:34:57;25.00;48.90
6462;DHT22;3264;42.862;25.098;2023-05-07T12:37:26;25.70;52.50
6462;DHT22;3264;42.862;25.098;2023-05-07T12:40:05;26.00;53.30
6462;DHT22;3264;42.862;25.098;2023-05-07T12:42:36;24.90;49.40
6462;DHT22;3264;42.862;25.098;2023-05-07T12:45:10;25.10;51.60
6462;DHT22;3264;42.862;25.098;2023-05-07T12:47:44;25.30;50.60
6462;DHT22;3264;42.862;25.098;2023-05-07T12:50:14;24.20;47.10
6462;DHT22;3264;42.862;25.098;2023-05-07T12:52:45;24.70;53.20
6462;DHT22;3264;42.862;25.098;2023-05-07T12:55:16;25.40;51.80
6462;DHT22;3264;42.862;25.098;2023-05-07T12:57:48;25.40;49.20
6462;DHT22;3264;42.862;25.098;2023-05-07T13:00:33;24.90;49.50
6462;DHT22;3264;42.862;25.098;2023-05-07T13:03:06;25.20;51.60
6462;DHT22;3264;42.862;25.098;2023-05-07T13:05:35;25.20;51.40
6462;DHT22;3264;42.862;25.098;2023-05-07T13:08:09;25.60;52.00
6462;DHT22;3264;42.862;25.098;2023-05-07T13:10:41;25.50;50.60
6462;DHT22;3264;42.862;25.098;2023-05-07T13:13:12;25.30;52.00
6462;DHT22;3264;42.862;25.098;2023-05-07T13:15:40;25.10;48.70
6462;DHT22;3264;42.862;25.098;2023-05-07T13:18:10;25.30;51.10
6462;DHT22;3264;42.862;25.098;2023-05-07T13:20:39;25.30;52.50
6462;DHT22;3264;42.862;25.098;2023-05-07T13:23:08;25.40;51.80
6462;DHT22;3264;42.862;25.098;2023-05-07T13:25:36;25.40;50.70
6462;DHT22;3264;42.862;25.098;2023-05-07T13:28:06;25.40;50.70
6462;DHT22;3264;42.862;25.098;2023-05-07T13:30:35;25.10;48.50
6462;DHT22;3264;42.862;25.098;2023-05-07T13:33:03;25.10;48.80
6462;DHT22;3264;42.862;25.098;2023-05-07T13:35:35;25.50;48.60
6462;DHT22;3264;42.862;25.098;2023-05-07T13:38:08;25.10;50.80
6462;DHT22;3264;42.862;25.098;2023-05-07T13:40:37;25.10;50.10
6462;DHT22;3264;42.862;25.098;2023-05-07T13:43:08;25.00;50.90
6462;DHT22;3264;42.862;25.098;2023-05-07T13:45:38;24.90;49.20
6462;DHT22;3264;42.862;25.098;2023-05-07T13:48:07;24.90;48.70
6462;DHT22;3264;42.862;25.098;2023-05-07T13:50:38;25.40;53.10
6462;DHT22;3264;42.862;25.098;2023-05-07T13:53:08;25.00;50.50
6462;DHT22;3264;42.862;25.098;2023-05-07T13:55:37;24.90;50.20
6462;DHT22;3264;42.862;25.098;2023-05-07T13:58:06;24.50;47.30
6462;DHT22;3264;42.862;25.098;2023-05-07T14:00:34;24.40;48.30
6462;DHT22;3264;42.862;25.098;2023-05-07T14:03:05;24.70;50.60
6462;DHT22;3264;42.862;25.098;2023-05-07T14:05:35;24.60;51.30
6462;DHT22;3264;42.862;25.098;2023-05-07T14:08:05;24.40;51.30
6462;DHT22;3264;42.862;25.098;2023-05-07T14:10:35;24.40;49.50
6462;DHT22;3264;42.862;25.098;2023-05-07T14:13:04;24.50;50.90
6462;DHT22;3264;42.862;25.098;2023-05-07T14:15:35;24.90;51.60
6462;DHT22;3264;42.862;25.098;2023-05-07T14:18:03;24.90;50.40
6462;DHT22;3264;42.862;25.098;2023-05-07T14:20:32;24.60;49.70
6462;DHT22;3264;42.862;25.098;2023-05-07T14:23:06;24.30;49.60
6462;DHT22;3264;42.862;25.098;2023-05-07T14:25:37;24.50;48.70
6462;DHT22;3264;42.862;25.098;2023-05-07T14:28:11;24.40;48.80
6462;DHT22;3264;42.862;25.098;2023-05-07T14:30:40;24.00;48.30
6462;DHT22;3264;42.862;25.098;2023-05-07T14:33:11;24.00;49.80
6462;DHT22;3264;42.862;25.098;2023-05-07T14:35:39;24.30;50.90
6462;DHT22;3264;42.862;25.098;2023-05-07T14:38:09;24.00;47.30
6462;DHT22;3264;42.862;25.098;2023-05-07T14:40:38;24.00;49.40
6462;DHT22;3264;42.862;25.098;2023-05-07T14:43:08;24.00;50.40
6462;DHT22;3264;42.862;25.098;2023-05-07T14:45:36;24.10;49.50
6462;DHT22;3264;42.862;25.098;2023-05-07T14:48:05;24.10;49.40
6462;DHT22;3264;42.862;25.098;2023-05-07T14:50:36;24.00;51.30
6462;DHT22;3264;42.862;25.098;2023-05-07T14:53:05;23.70;53.00
6462;DHT22;3264;42.862;25.098;2023-05-07T14:55:36;23.90;51.20
6462;DHT22;3264;42.862;25.098;2023-05-07T14:58:06;24.00;51.90
6462;DHT22;3264;42.862;25.098;2023-05-07T15:00:34;23.70;51.00
6462;DHT22;3264;42.862;25.098;2023-05-07T15:03:08;23.90;53.10
6462;DHT22;3264;42.862;25.098;2023-05-07T15:05:37;24.00;51.70
6462;DHT22;3264;42.862;25.098;2023-05-07T15:08:06;23.90;51.50
6462;DHT22;3264;42.862;25.098;2023-05-07T15:10:37;23.80;51.50
6462;DHT22;3264;42.862;25.098;2023-05-07T15:13:08;23.60;50.60
6462;DHT22;3264;42.862;25.098;2023-05-07T15:15:36;23.60;52.30
6462;DHT22;3264;42.862;25.098;2023-05-07T15:18:06;23.10;49.50
6462;DHT22;3264;42.862;25.098;2023-05-07T15:20:36;23.00;51.70
6462;DHT22;3264;42.862;25.098;2023-05-07T15:23:06;23.30;52.50
6462;DHT22;3264;42.862;25.098;2023-05-07T15:25:38;23.50;54.10
6462;DHT22;3264;42.862;25.098;2023-05-07T15:28:08;23.20;52.00
6462;DHT22;3264;42.862;25.098;2023-05-07T15:30:36;23.00;50.90
6462;DHT22;3264;42.862;25.098;2023-05-07T15:33:12;23.20;54.40
6462;DHT22;3264;42.862;25.098;2023-05-07T15:35:42;23.20;53.40
6462;DHT22;3264;42.862;25.098;2023-05-07T15:38:13;22.60;51.70
6462;DHT22;3264;42.862;25.098;2023-05-07T15:40:42;22.40;53.60
6462;DHT22;3264;42.862;25.098;2023-05-07T15:43:11;22.00;58.70
6462;DHT22;3264;42.862;25.098;2023-05-07T15:45:42;21.90;60.60
6462;DHT22;3264;42.862;25.098;2023-05-07T15:48:12;21.90;59.40
6462;DHT22;3264;42.862;25.098;2023-05-07T15:50:39;22.10;59.20
6462;DHT22;3264;42.862;25.098;2023-05-07T15:53:11;22.00;58.10
6462;DHT22;3264;42.862;25.098;2023-05-07T15:55:40;21.90;57.20
6462;DHT22;3264;42.862;25.098;2023-05-07T15:58:12;21.90;59.30
6462;DHT22;3264;42.862;25.098;2023-05-07T16:00:41;21.80;54.70
6462;DHT22;3264;42.862;25.098;2023-05-07T16:03:10;21.80;60.80
6462;DHT22;3264;42.862;25.098;2023-05-07T16:05:40;21.70;60.90
6462;DHT22;3264;42.862;25.098;2023-05-07T16:08:08;21.70;61.60
6462;DHT22;3264;42.862;25.098;2023-05-07T16:10:37;21.50;61.70
6462;DHT22;3264;42.862;25.098;2023-05-07T16:13:06;21.50;61.30